sensor_id;sensor_type;location;lat;lon;timestamp;temperature;humidity
24097;DHT22;12275;48.550;12.132;2022-12-18T00:01:12;-2.70;99.90
24097;DHT22;12275;48.550;12.132;2022-12-18T00:03:38;-2.70;99.90
24097;DHT22;12275;48.550;12.132;2022-12-18T00:06:04;-2.70;99.90
24097;DHT22;12275;48.550;12.132;2022-12-18T00:08:30;-2.70;99.90
24097;DHT22;12275;48.550;12.132;2022-12-18T00:11:02;-3.20;99.90
24097;DHT22;12275;48.550;12.132;2022-12-18T00:13:28;-3.20;99.90
24097;DHT22;12275;48.550;12.132;2022-12-18T00:16:00;-3.00;99.90
24097;DHT22;12275;48.550;12.132;2022-12-18T00:18:26;-2.90;99.90
24097;DHT22;12275;48.550;12.132;2022-12-18T00:20:52;-3.00;99.90
24097;DHT22;12275;48.550;12.132;2022-12-18T00:23:21;-3.00;99.90
24097;DHT22;12275;48.550;12.132;2022-12-18T00:25:47;-2.90;99.90
24097;DHT22;12275;48.550;12.132;2022-12-18T00:28:12;-2.90;99.90
24097;DHT22;12275;48.550;12.132;2022-12-18T00:30:38;-2.80;99.90
24097;DHT22;12275;48.550;12.132;2022-12-18T00:33:07;-2.70;99.90
24097;DHT22;12275;48.550;12.132;2022-12-18T00:35:37;-2.60;99.90
24097;DHT22;12275;48.550;12.132;2022-12-18T00:38:11;-2.60;99.90
24097;DHT22;12275;48.550;12.132;2022-12-18T00:40:36;-2.60;99.90
24097;DHT22;12275;48.550;12.132;2022-12-18T00:43:05;-2.60;99.90
24097;DHT22;12275;48.550;12.132;2022-12-18T00:45:35;-2.60;99.90
24097;DHT22;12275;48.550;12.132;2022-12-18T00:48:01;-2.60;99.90
24097;DHT22;12275;48.550;12.132;2022-12-18T00:50:26;-2.60;99.90
24097;DHT22;12275;48.550;12.132;2022-12-18T00:52:59;-2.60;99.90
24097;DHT22;12275;48.550;12.132;2022-12-18T00:55:25;-2.50;99.90
24097;DHT22;12275;48.550;12.132;2022-12-18T00:57:53;-2.50;99.90
24097;DHT22;12275;48.550;12.132;2022-12-18T01:00:23;-2.50;99.90
24097;DHT22;12275;48.550;12.132;2022-12-18T01:02:49;-2.50;99.90
24097;DHT22;12275;48.550;12.132;2022-12-18T01:05:15;-2.50;99.90
24097;DHT22;12275;48.550;12.132;2022-12-18T01:07:42;-2.60;99.90
24097;DHT22;12275;48.550;12.132;2022-12-18T01:10:08;-2.70;99.90
24097;DHT22;12275;48.550;12.132;2022-12-18T01:12:38;-2.60;99.90
24097;DHT22;12275;48.550;12.132;2022-12-18T01:15:04;-2.60;99.90
24097;DHT22;12275;48.550;12.132;2022-12-18T01:17:30;-2.60;99.90
24097;DHT22;12275;48.550;12.132;2022-12-18T01:19:56;-2.80;99.90
24097;DHT22;12275;48.550;12.132;2022-12-18T01:22:21;-2.90;99.90
24097;DHT22;12275;48.550;12.132;2022-12-18T01:24:47;-2.90;99.90
24097;DHT22;12275;48.550;12.132;2022-12-18T01:27:13;-2.90;99.90
24097;DHT22;12275;48.550;12.132;2022-12-18T01:29:38;-2.90;99.90
24097;DHT22;12275;48.550;12.132;2022-12-18T01:32:04;-2.90;99.90
24097;DHT22;12275;48.550;12.132;2022-12-18T01:34:30;-2.80;99.90
24097;DHT22;12275;48.550;12.132;2022-12-18T01:36:56;-2.80;99.90
24097;DHT22;12275;48.550;12.132;2022-12-18T01:39:23;-2.80;99.90
24097;DHT22;12275;48.550;12.132;2022-12-18T01:41:48;-2.70;99.90
24097;DHT22;12275;48.550;12.132;2022-12-18T01:49:49;-2.50;99.90
24097;DHT22;12275;48.550;12.132;2022-12-18T01:52:15;-2.60;99.90
24097;DHT22;12275;48.550;12.132;2022-12-18T01:54:43;-2.50;99.90
24097;DHT22;12275;48.550;12.132;2022-12-18T01:57:37;-2.50;99.90
24097;DHT22;12275;48.550;12.132;2022-12-18T02:00:11;-2.60;99.90
24097;DHT22;12275;48.550;12.132;2022-12-18T02:02:38;-2.60;99.90
24097;DHT22;12275;48.550;12.132;2022-12-18T02:05:04;-2.60;99.90
24097;DHT22;12275;48.550;12.132;2022-12-18T02:12:48;-2.50;99.90
24097;DHT22;12275;48.550;12.132;2022-12-18T02:15:27;-2.60;99.90
24097;DHT22;12275;48.550;12.132;2022-12-18T02:17:56;-2.60;99.90
24097;DHT22;12275;48.550;12.132;2022-12-18T02:20:34;-2.60;99.90
24097;DHT22;12275;48.550;12.132;2022-12-18T02:23:04;-2.80;99.90
24097;DHT22;12275;48.550;12.132;2022-12-18T02:28:16;-3.20;99.90
24097;DHT22;12275;48.550;12.132;2022-12-18T02:30:48;-3.10;99.90
24097;DHT22;12275;48.550;12.132;2022-12-18T02:33:18;-3.20;99.90
24097;DHT22;12275;48.550;12.132;2022-12-18T02:35:47;-3.10;99.90
24097;DHT22;12275;48.550;12.132;2022-12-18T02:38:14;-3.10;99.90
24097;DHT22;12275;48.550;12.132;2022-12-18T02:40:41;-3.00;99.90
24097;DHT22;12275;48.550;12.132;2022-12-18T02:43:08;-3.00;99.90
24097;DHT22;12275;48.550;12.132;2022-12-18T02:45:34;-3.00;99.90
24097;DHT22;12275;48.550;12.132;2022-12-18T02:48:00;-2.80;99.90
24097;DHT22;12275;48.550;12.132;2022-12-18T02:50:36;-2.90;99.90
24097;DHT22;12275;48.550;12.132;2022-12-18T02:55:42;-3.10;99.90
24097;DHT22;12275;48.550;12.132;2022-12-18T02:58:20;-3.00;99.90
24097;DHT22;12275;48.550;12.132;2022-12-18T03:00:52;-2.80;99.90
24097;DHT22;12275;48.550;12.132;2022-12-18T03:03:20;-2.80;99.90
24097;DHT22;12275;48.550;12.132;2022-12-18T03:05:51;-2.70;99.90
24097;DHT22;12275;48.550;12.132;2022-12-18T03:08:18;-2.70;99.90
24097;DHT22;12275;48.550;12.132;2022-12-18T03:10:48;-2.80;99.90
24097;DHT22;12275;48.550;12.132;2022-12-18T03:13:17;-2.80;99.90
24097;DHT22;12275;48.550;12.132;2022-12-18T03:15:48;-2.70;99.90
24097;DHT22;12275;48.550;12.132;2022-12-18T03:18:19;-2.80;99.90
24097;DHT22;12275;48.550;12.132;2022-12-18T03:20:46;-2.80;99.90
24097;DHT22;12275;48.550;12.132;2022-12-18T03:23:27;-2.70;99.90
24097;DHT22;12275;48.550;12.132;2022-12-18T03:25:55;-3.00;99.90
24097;DHT22;12275;48.550;12.132;2022-12-18T03:28:22;-3.10;99.90
24097;DHT22;12275;48.550;12.132;2022-12-18T03:30:57;-2.90;99.90
24097;DHT22;12275;48.550;12.132;2022-12-18T03:33:25;-2.90;99.90
24097;DHT22;12275;48.550;12.132;2022-12-18T03:35:52;-2.90;99.90
24097;DHT22;12275;48.550;12.132;2022-12-18T03:38:17;-2.80;99.90
24097;DHT22;12275;48.550;12.132;2022-12-18T03:43:10;-2.80;99.90
24097;DHT22;12275;48.550;12.132;2022-12-18T03:45:53;-2.90;99.90
24097;DHT22;12275;48.550;12.132;2022-12-18T03:48:28;-2.90;99.90
24097;DHT22;12275;48.550;12.132;2022-12-18T03:50:57;-2.90;99.90
24097;DHT22;12275;48.550;12.132;2022-12-18T03:53:34;-2.80;99.90
24097;DHT22;12275;48.550;12.132;2022-12-18T03:58:56;-2.70;99.90
24097;DHT22;12275;48.550;12.132;2022-12-18T04:01:25;-2.70;99.90
24097;DHT22;12275;48.550;12.132;2022-12-18T04:03:52;-2.70;99.90
24097;DHT22;12275;48.550;12.132;2022-12-18T04:06:18;-2.70;99.90
24097;DHT22;12275;48.550;12.132;2022-12-18T04:08:44;-2.70;99.90
24097;DHT22;12275;48.550;12.132;2022-12-18T04:11:10;-2.80;99.90
24097;DHT22;12275;48.550;12.132;2022-12-18T04:13:36;-2.80;99.90
24097;DHT22;12275;48.550;12.132;2022-12-18T04:16:03;-2.80;99.90
24097;DHT22;12275;48.550;12.132;2022-12-18T04:18:29;-2.90;99.90
24097;DHT22;12275;48.550;12.132;2022-12-18T04:20:56;-2.90;99.90
24097;DHT22;12275;48.550;12.132;2022-12-18T04:23:29;-2.80;99.90
24097;DHT22;12275;48.550;12.132;2022-12-18T04:25:54;-2.90;99.90
24097;DHT22;12275;48.550;12.132;2022-12-18T04:28:20;-3.20;99.90
24097;DHT22;12275;48.550;12.132;2022-12-18T04:30:46;-3.40;99.90
24097;DHT22;12275;48.550;12.132;2022-12-18T04:33:11;-3.30;99.90
24097;DHT22;12275;48.550;12.132;2022-12-18T04:35:38;-3.30;99.90
24097;DHT22;12275;48.550;12.132;2022-12-18T04:38:05;-3.20;99.90
24097;DHT22;12275;48.550;12.132;2022-12-18T04:40:33;-3.30;99.90
24097;DHT22;12275;48.550;12.132;2022-12-18T04:43:03;-3.20;99.90
24097;DHT22;12275;48.550;12.132;2022-12-18T04:45:32;-3.20;99.90
24097;DHT22;12275;48.550;12.132;2022-12-18T04:47:58;-3.30;99.90
24097;DHT22;12275;48.550;12.132;2022-12-18T04:50:30;-3.30;99.90
24097;DHT22;12275;48.550;12.132;2022-12-18T04:52:56;-3.10;99.90
24097;DHT22;12275;48.550;12.132;2022-12-18T04:55:21;-3.00;99.90
24097;DHT22;12275;48.550;12.132;2022-12-18T04:57:47;-3.00;99.90
24097;DHT22;12275;48.550;12.132;2022-12-18T05:00:13;-2.90;99.90
24097;DHT22;12275;48.550;12.132;2022-12-18T05:02:38;-2.90;99.90
24097;DHT22;12275;48.550;12.132;2022-12-18T05:05:04;-2.90;99.90
24097;DHT22;12275;48.550;12.132;2022-12-18T05:07:30;-2.90;99.90
24097;DHT22;12275;48.550;12.132;2022-12-18T05:09:55;-3.00;99.90
24097;DHT22;12275;48.550;12.132;2022-12-18T05:12:24;-3.10;99.90
24097;DHT22;12275;48.550;12.132;2022-12-18T05:14:49;-3.20;99.90
24097;DHT22;12275;48.550;12.132;2022-12-18T05:17:15;-3.10;99.90
24097;DHT22;12275;48.550;12.132;2022-12-18T05:19:40;-2.90;99.90
24097;DHT22;12275;48.550;12.132;2022-12-18T05:22:06;-2.80;99.90
24097;DHT22;12275;48.550;12.132;2022-12-18T05:24:32;-2.70;99.90
24097;DHT22;12275;48.550;12.132;2022-12-18T05:26:57;-2.70;99.90
24097;DHT22;12275;48.550;12.132;2022-12-18T05:29:23;-2.60;99.90
24097;DHT22;12275;48.550;12.132;2022-12-18T05:31:48;-2.60;99.90
24097;DHT22;12275;48.550;12.132;2022-12-18T05:34:14;-2.60;99.90
24097;DHT22;12275;48.550;12.132;2022-12-18T05:36:39;-2.60;99.90
24097;DHT22;12275;48.550;12.132;2022-12-18T05:39:05;-2.70;99.90
24097;DHT22;12275;48.550;12.132;2022-12-18T05:41:31;-2.60;99.90
24097;DHT22;12275;48.550;12.132;2022-12-18T05:43:56;-2.60;99.90
24097;DHT22;12275;48.550;12.132;2022-12-18T05:46:23;-2.60;99.90
24097;DHT22;12275;48.550;12.132;2022-12-18T05:48:49;-2.70;99.90
24097;DHT22;12275;48.550;12.132;2022-12-18T05:51:16;-2.80;99.90
24097;DHT22;12275;48.550;12.132;2022-12-18T05:53:43;-3.00;99.90
24097;DHT22;12275;48.550;12.132;2022-12-18T05:56:10;-3.00;99.90
24097;DHT22;12275;48.550;12.132;2022-12-18T05:58:36;-2.90;99.90
24097;DHT22;12275;48.550;12.132;2022-12-18T06:01:10;-2.90;99.90
24097;DHT22;12275;48.550;12.132;2022-12-18T06:03:35;-2.80;99.90
24097;DHT22;12275;48.550;12.132;2022-12-18T06:06:01;-2.80;99.90
24097;DHT22;12275;48.550;12.132;2022-12-18T06:08:27;-2.80;99.90
24097;DHT22;12275;48.550;12.132;2022-12-18T06:10:52;-2.80;99.90
24097;DHT22;12275;48.550;12.132;2022-12-18T06:13:18;-2.80;99.90
24097;DHT22;12275;48.550;12.132;2022-12-18T06:15:44;-2.70;99.90
24097;DHT22;12275;48.550;12.132;2022-12-18T06:18:09;-2.60;99.90
24097;DHT22;12275;48.550;12.132;2022-12-18T06:20:35;-2.60;99.90
24097;DHT22;12275;48.550;12.132;2022-12-18T06:23:02;-2.60;99.90
24097;DHT22;12275;48.550;12.132;2022-12-18T06:25:27;-2.60;99.90
24097;DHT22;12275;48.550;12.132;2022-12-18T06:27:53;-2.60;99.90
24097;DHT22;12275;48.550;12.132;2022-12-18T06:30:19;-2.60;99.90
24097;DHT22;12275;48.550;12.132;2022-12-18T06:32:44;-2.50;99.90
24097;DHT22;12275;48.550;12.132;2022-12-18T06:35:10;-2.50;99.90
24097;DHT22;12275;48.550;12.132;2022-12-18T06:37:35;-2.60;99.90
24097;DHT22;12275;48.550;12.132;2022-12-18T06:40:01;-2.70;99.90
24097;DHT22;12275;48.550;12.132;2022-12-18T06:42:28;-2.80;99.90
24097;DHT22;12275;48.550;12.132;2022-12-18T06:44:53;-3.00;99.90
24097;DHT22;12275;48.550;12.132;2022-12-18T06:47:19;-3.10;99.90
24097;DHT22;12275;48.550;12.132;2022-12-18T06:49:44;-3.00;99.90
24097;DHT22;12275;48.550;12.132;2022-12-18T06:52:10;-2.90;99.90
24097;DHT22;12275;48.550;12.132;2022-12-18T06:54:36;-2.90;99.90
24097;DHT22;12275;48.550;12.132;2022-12-18T06:57:01;-2.90;99.90
24097;DHT22;12275;48.550;12.132;2022-12-18T06:59:27;-3.00;99.90
24097;DHT22;12275;48.550;12.132;2022-12-18T07:01:53;-2.90;99.90
24097;DHT22;12275;48.550;12.132;2022-12-18T07:04:18;-2.80;99.90
24097;DHT22;12275;48.550;12.132;2022-12-18T07:06:44;-2.80;99.90
24097;DHT22;12275;48.550;12.132;2022-12-18T07:09:09;-2.90;99.90
24097;DHT22;12275;48.550;12.132;2022-12-18T07:11:35;-2.80;99.90
24097;DHT22;12275;48.550;12.132;2022-12-18T07:14:00;-2.80;99.90
24097;DHT22;12275;48.550;12.132;2022-12-18T07:16:26;-2.70;99.90
24097;DHT22;12275;48.550;12.132;2022-12-18T07:18:54;-2.80;99.90
24097;DHT22;12275;48.550;12.132;2022-12-18T07:21:19;-2.70;99.90
24097;DHT22;12275;48.550;12.132;2022-12-18T07:23:45;-2.70;99.90
24097;DHT22;12275;48.550;12.132;2022-12-18T07:26:13;-2.70;99.90
24097;DHT22;12275;48.550;12.132;2022-12-18T07:28:40;-2.70;99.90
24097;DHT22;12275;48.550;12.132;2022-12-18T07:31:12;-2.70;99.90
24097;DHT22;12275;48.550;12.132;2022-12-18T07:33:39;-2.70;99.90
24097;DHT22;12275;48.550;12.132;2022-12-18T07:36:05;-2.80;99.90
24097;DHT22;12275;48.550;12.132;2022-12-18T07:38:31;-2.80;99.90
24097;DHT22;12275;48.550;12.132;2022-12-18T07:41:07;-2.80;99.90
24097;DHT22;12275;48.550;12.132;2022-12-18T07:43:33;-2.80;99.90
24097;DHT22;12275;48.550;12.132;2022-12-18T07:45:59;-2.70;99.90
24097;DHT22;12275;48.550;12.132;2022-12-18T07:48:24;-2.70;99.90
24097;DHT22;12275;48.550;12.132;2022-12-18T07:50:50;-2.70;99.90
24097;DHT22;12275;48.550;12.132;2022-12-18T07:53:15;-2.90;99.90
24097;DHT22;12275;48.550;12.132;2022-12-18T07:55:41;-3.00;99.90
24097;DHT22;12275;48.550;12.132;2022-12-18T07:58:07;-3.00;99.90
24097;DHT22;12275;48.550;12.132;2022-12-18T08:00:33;-2.90;99.90
24097;DHT22;12275;48.550;12.132;2022-12-18T08:02:58;-2.90;99.90
24097;DHT22;12275;48.550;12.132;2022-12-18T08:05:24;-2.90;99.90
24097;DHT22;12275;48.550;12.132;2022-12-18T08:07:50;-2.90;99.90
24097;DHT22;12275;48.550;12.132;2022-12-18T08:10:15;-2.90;99.90
24097;DHT22;12275;48.550;12.132;2022-12-18T08:12:41;-2.90;99.90
24097;DHT22;12275;48.550;12.132;2022-12-18T08:15:07;-2.90;99.90
24097;DHT22;12275;48.550;12.132;2022-12-18T08:17:32;-2.90;99.90
24097;DHT22;12275;48.550;12.132;2022-12-18T08:19:58;-2.90;99.90
24097;DHT22;12275;48.550;12.132;2022-12-18T08:22:23;-2.80;99.90
24097;DHT22;12275;48.550;12.132;2022-12-18T08:24:49;-2.80;99.90
24097;DHT22;12275;48.550;12.132;2022-12-18T08:27:15;-2.90;99.90
24097;DHT22;12275;48.550;12.132;2022-12-18T08:29:40;-2.80;99.90
24097;DHT22;12275;48.550;12.132;2022-12-18T08:32:06;-2.70;99.90
24097;DHT22;12275;48.550;12.132;2022-12-18T08:34:32;-2.60;99.90
24097;DHT22;12275;48.550;12.132;2022-12-18T08:36:57;-2.60;99.90
24097;DHT22;12275;48.550;12.132;2022-12-18T08:39:24;-2.50;99.90
24097;DHT22;12275;48.550;12.132;2022-12-18T08:41:50;-2.50;99.90
24097;DHT22;12275;48.550;12.132;2022-12-18T08:44:34;-2.60;99.90
24097;DHT22;12275;48.550;12.132;2022-12-18T08:47:06;-2.50;99.90
24097;DHT22;12275;48.550;12.132;2022-12-18T08:49:32;-2.50;99.90
24097;DHT22;12275;48.550;12.132;2022-12-18T08:51:58;-2.50;99.90
24097;DHT22;12275;48.550;12.132;2022-12-18T08:54:23;-2.40;99.90
24097;DHT22;12275;48.550;12.132;2022-12-18T08:56:49;-2.40;99.90
24097;DHT22;12275;48.550;12.132;2022-12-18T08:59:18;-2.40;99.90
24097;DHT22;12275;48.550;12.132;2022-12-18T09:01:44;-2.50;99.90
24097;DHT22;12275;48.550;12.132;2022-12-18T09:04:10;-2.50;99.90
24097;DHT22;12275;48.550;12.132;2022-12-18T09:06:36;-2.50;99.90
24097;DHT22;12275;48.550;12.132;2022-12-18T09:09:02;-2.40;99.90
24097;DHT22;12275;48.550;12.132;2022-12-18T09:11:28;-2.40;99.90
24097;DHT22;12275;48.550;12.132;2022-12-18T09:13:54;-2.40;99.90
24097;DHT22;12275;48.550;12.132;2022-12-18T09:16:20;-2.40;99.90
24097;DHT22;12275;48.550;12.132;2022-12-18T09:18:45;-2.40;99.90
24097;DHT22;12275;48.550;12.132;2022-12-18T09:21:16;-2.40;99.90
24097;DHT22;12275;48.550;12.132;2022-12-18T09:23:42;-2.40;99.90
24097;DHT22;12275;48.550;12.132;2022-12-18T09:26:07;-2.40;99.90
24097;DHT22;12275;48.550;12.132;2022-12-18T09:28:33;-2.40;99.90
24097;DHT22;12275;48.550;12.132;2022-12-18T09:31:03;-2.40;99.90
24097;DHT22;12275;48.550;12.132;2022-12-18T09:33:28;-2.40;99.90
24097;DHT22;12275;48.550;12.132;2022-12-18T09:35:54;-2.30;99.90
24097;DHT22;12275;48.550;12.132;2022-12-18T09:38:19;-2.30;99.90
24097;DHT22;12275;48.550;12.132;2022-12-18T09:43:18;-2.30;99.90
24097;DHT22;12275;48.550;12.132;2022-12-18T09:45:46;-2.30;99.90
24097;DHT22;12275;48.550;12.132;2022-12-18T09:48:18;-2.40;99.90
24097;DHT22;12275;48.550;12.132;2022-12-18T09:50:45;-2.50;99.90
24097;DHT22;12275;48.550;12.132;2022-12-18T09:53:30;-2.50;99.90
24097;DHT22;12275;48.550;12.132;2022-12-18T09:55:58;-2.50;99.90
24097;DHT22;12275;48.550;12.132;2022-12-18T09:58:34;-2.50;99.90
24097;DHT22;12275;48.550;12.132;2022-12-18T10:01:01;-2.60;99.90
24097;DHT22;12275;48.550;12.132;2022-12-18T10:03:27;-2.50;99.90
24097;DHT22;12275;48.550;12.132;2022-12-18T10:10:53;-2.40;99.90
24097;DHT22;12275;48.550;12.132;2022-12-18T10:13:41;-2.50;99.90
24097;DHT22;12275;48.550;12.132;2022-12-18T10:18:37;-2.40;99.90
24097;DHT22;12275;48.550;12.132;2022-12-18T10:21:27;-2.50;99.90
24097;DHT22;12275;48.550;12.132;2022-12-18T10:23:56;-2.40;99.90
24097;DHT22;12275;48.550;12.132;2022-12-18T10:26:23;-2.40;99.90
24097;DHT22;12275;48.550;12.132;2022-12-18T10:28:49;-2.30;99.90
24097;DHT22;12275;48.550;12.132;2022-12-18T10:31:17;-2.20;99.90
24097;DHT22;12275;48.550;12.132;2022-12-18T10:33:43;-2.10;99.90
24097;DHT22;12275;48.550;12.132;2022-12-18T10:36:09;-2.00;99.90
24097;DHT22;12275;48.550;12.132;2022-12-18T10:38:35;-2.10;99.90
24097;DHT22;12275;48.550;12.132;2022-12-18T10:41:02;-2.00;99.90
24097;DHT22;12275;48.550;12.132;2022-12-18T10:43:35;-2.00;99.90
24097;DHT22;12275;48.550;12.132;2022-12-18T10:46:08;-1.90;99.90
24097;DHT22;12275;48.550;12.132;2022-12-18T10:51:19;-1.90;99.90
24097;DHT22;12275;48.550;12.132;2022-12-18T10:53:50;-1.90;99.90
24097;DHT22;12275;48.550;12.132;2022-12-18T10:56:18;-1.90;99.90
24097;DHT22;12275;48.550;12.132;2022-12-18T10:58:46;-2.00;99.90
24097;DHT22;12275;48.550;12.132;2022-12-18T11:01:20;-2.00;99.90
24097;DHT22;12275;48.550;12.132;2022-12-18T11:03:47;-1.90;99.90
24097;DHT22;12275;48.550;12.132;2022-12-18T11:06:24;-1.90;99.90
24097;DHT22;12275;48.550;12.132;2022-12-18T11:11:34;-2.30;99.90
24097;DHT22;12275;48.550;12.132;2022-12-18T11:14:06;-2.30;99.90
24097;DHT22;12275;48.550;12.132;2022-12-18T11:16:37;-2.20;99.90
24097;DHT22;12275;48.550;12.132;2022-12-18T11:22:22;-2.00;99.90
24097;DHT22;12275;48.550;12.132;2022-12-18T11:24:58;-2.10;99.90
24097;DHT22;12275;48.550;12.132;2022-12-18T11:27:25;-2.00;99.90
24097;DHT22;12275;48.550;12.132;2022-12-18T11:29:51;-1.90;99.90
24097;DHT22;12275;48.550;12.132;2022-12-18T11:32:24;-1.80;99.90
24097;DHT22;12275;48.550;12.132;2022-12-18T11:35:06;-1.90;99.90
24097;DHT22;12275;48.550;12.132;2022-12-18T11:37:35;-2.00;99.90
24097;DHT22;12275;48.550;12.132;2022-12-18T11:40:24;-2.00;99.90
24097;DHT22;12275;48.550;12.132;2022-12-18T11:42:58;-2.20;99.90
24097;DHT22;12275;48.550;12.132;2022-12-18T11:45:28;-2.20;99.90
24097;DHT22;12275;48.550;12.132;2022-12-18T11:47:56;-2.20;99.90
24097;DHT22;12275;48.550;12.132;2022-12-18T11:50:29;-2.20;99.90
24097;DHT22;12275;48.550;12.132;2022-12-18T11:52:55;-2.20;99.90
24097;DHT22;12275;48.550;12.132;2022-12-18T12:00:38;-2.20;99.90
24097;DHT22;12275;48.550;12.132;2022-12-18T12:03:27;-2.10;99.90
24097;DHT22;12275;48.550;12.132;2022-12-18T12:08:43;-2.10;99.90
24097;DHT22;12275;48.550;12.132;2022-12-18T12:16:37;-2.00;99.90
24097;DHT22;12275;48.550;12.132;2022-12-18T12:21:40;-1.90;99.90
24097;DHT22;12275;48.550;12.132;2022-12-18T12:34:31;-1.90;99.90
24097;DHT22;12275;48.550;12.132;2022-12-18T12:37:12;-2.00;99.90
24097;DHT22;12275;48.550;12.132;2022-12-18T12:39:42;-2.00;99.90
24097;DHT22;12275;48.550;12.132;2022-12-18T12:42:13;-1.90;99.90
24097;DHT22;12275;48.550;12.132;2022-12-18T12:45:00;-1.90;99.90
24097;DHT22;12275;48.550;12.132;2022-12-18T12:47:28;-1.90;99.90
24097;DHT22;12275;48.550;12.132;2022-12-18T12:49:56;-2.00;99.90
24097;DHT22;12275;48.550;12.132;2022-12-18T12:52:30;-2.00;99.90
24097;DHT22;12275;48.550;12.132;2022-12-18T12:54:58;-2.00;99.90
24097;DHT22;12275;48.550;12.132;2022-12-18T12:57:34;-2.00;99.90
24097;DHT22;12275;48.550;12.132;2022-12-18T13:00:04;-1.90;99.90
24097;DHT22;12275;48.550;12.132;2022-12-18T13:02:34;-1.90;99.90
24097;DHT22;12275;48.550;12.132;2022-12-18T13:05:07;-1.90;99.90
24097;DHT22;12275;48.550;12.132;2022-12-18T13:07:40;-1.80;99.90
24097;DHT22;12275;48.550;12.132;2022-12-18T13:18:03;-2.00;99.90
24097;DHT22;12275;48.550;12.132;2022-12-18T13:20:33;-2.00;99.90
24097;DHT22;12275;48.550;12.132;2022-12-18T13:22:59;-2.00;99.90
24097;DHT22;12275;48.550;12.132;2022-12-18T13:27:59;-2.00;99.90
24097;DHT22;12275;48.550;12.132;2022-12-18T13:38:34;-1.90;99.90
24097;DHT22;12275;48.550;12.132;2022-12-18T13:41:01;-1.90;99.90
24097;DHT22;12275;48.550;12.132;2022-12-18T13:43:28;-1.80;99.90
24097;DHT22;12275;48.550;12.132;2022-12-18T13:46:01;-1.90;99.90
24097;DHT22;12275;48.550;12.132;2022-12-18T13:48:27;-1.90;99.90
24097;DHT22;12275;48.550;12.132;2022-12-18T13:51:10;-1.80;99.90
24097;DHT22;12275;48.550;12.132;2022-12-18T13:53:43;-1.90;99.90
24097;DHT22;12275;48.550;12.132;2022-12-18T13:56:09;-1.90;99.90
24097;DHT22;12275;48.550;12.132;2022-12-18T13:58:40;-1.90;99.90
24097;DHT22;12275;48.550;12.132;2022-12-18T14:01:14;-1.90;99.90
24097;DHT22;12275;48.550;12.132;2022-12-18T14:03:41;-1.90;99.90
24097;DHT22;12275;48.550;12.132;2022-12-18T14:06:07;-1.90;99.90
24097;DHT22;12275;48.550;12.132;2022-12-18T14:08:39;-1.80;99.90
24097;DHT22;12275;48.550;12.132;2022-12-18T14:11:05;-1.90;99.90
24097;DHT22;12275;48.550;12.132;2022-12-18T14:13:33;-1.90;99.90
24097;DHT22;12275;48.550;12.132;2022-12-18T14:16:01;-1.90;99.90
24097;DHT22;12275;48.550;12.132;2022-12-18T14:21:00;-2.00;99.90
24097;DHT22;12275;48.550;12.132;2022-12-18T14:25:55;-2.10;99.90
24097;DHT22;12275;48.550;12.132;2022-12-18T14:28:20;-2.10;99.90
24097;DHT22;12275;48.550;12.132;2022-12-18T14:30:47;-2.10;99.90
24097;DHT22;12275;48.550;12.132;2022-12-18T14:33:21;-2.30;99.90
24097;DHT22;12275;48.550;12.132;2022-12-18T14:38:28;-2.40;99.90
24097;DHT22;12275;48.550;12.132;2022-12-18T14:43:20;-2.30;99.90
24097;DHT22;12275;48.550;12.132;2022-12-18T14:45:45;-2.30;99.90
24097;DHT22;12275;48.550;12.132;2022-12-18T14:48:14;-2.20;99.90
24097;DHT22;12275;48.550;12.132;2022-12-18T14:50:40;-2.20;99.90
24097;DHT22;12275;48.550;12.132;2022-12-18T14:53:06;-2.40;99.90
24097;DHT22;12275;48.550;12.132;2022-12-18T14:55:31;-2.70;99.90
24097;DHT22;12275;48.550;12.132;2022-12-18T14:57:57;-2.70;99.90
24097;DHT22;12275;48.550;12.132;2022-12-18T15:00:24;-2.60;99.90
24097;DHT22;12275;48.550;12.132;2022-12-18T15:02:51;-2.50;99.90
24097;DHT22;12275;48.550;12.132;2022-12-18T15:05:19;-2.50;99.90
24097;DHT22;12275;48.550;12.132;2022-12-18T15:07:49;-2.50;99.90
24097;DHT22;12275;48.550;12.132;2022-12-18T15:12:41;-2.50;99.90
24097;DHT22;12275;48.550;12.132;2022-12-18T15:18:01;-2.40;99.90
24097;DHT22;12275;48.550;12.132;2022-12-18T15:20:27;-2.40;99.90
24097;DHT22;12275;48.550;12.132;2022-12-18T15:22:55;-2.30;99.90
24097;DHT22;12275;48.550;12.132;2022-12-18T15:25:26;-2.30;99.90
24097;DHT22;12275;48.550;12.132;2022-12-18T15:27:52;-2.30;99.90
24097;DHT22;12275;48.550;12.132;2022-12-18T15:30:19;-2.30;99.90
24097;DHT22;12275;48.550;12.132;2022-12-18T15:32:45;-2.30;99.90
24097;DHT22;12275;48.550;12.132;2022-12-18T15:37:37;-2.30;99.90
24097;DHT22;12275;48.550;12.132;2022-12-18T15:40:02;-2.30;99.90
24097;DHT22;12275;48.550;12.132;2022-12-18T15:42:28;-2.40;99.90
24097;DHT22;12275;48.550;12.132;2022-12-18T15:45:13;-2.40;99.90
24097;DHT22;12275;48.550;12.132;2022-12-18T15:47:38;-2.40;99.90
24097;DHT22;12275;48.550;12.132;2022-12-18T15:50:04;-2.40;99.90
24097;DHT22;12275;48.550;12.132;2022-12-18T15:52:31;-2.30;99.90
24097;DHT22;12275;48.550;12.132;2022-12-18T15:54:59;-2.30;99.90
24097;DHT22;12275;48.550;12.132;2022-12-18T15:57:43;-2.40;99.90
24097;DHT22;12275;48.550;12.132;2022-12-18T16:00:11;-2.40;99.90
24097;DHT22;12275;48.550;12.132;2022-12-18T16:02:37;-2.40;99.90
24097;DHT22;12275;48.550;12.132;2022-12-18T16:05:02;-2.40;99.90
24097;DHT22;12275;48.550;12.132;2022-12-18T16:07:28;-2.40;99.90
24097;DHT22;12275;48.550;12.132;2022-12-18T16:09:53;-2.40;99.90
24097;DHT22;12275;48.550;12.132;2022-12-18T16:12:22;-2.40;99.90
24097;DHT22;12275;48.550;12.132;2022-12-18T16:14:49;-2.40;99.90
24097;DHT22;12275;48.550;12.132;2022-12-18T16:17:14;-2.40;99.90
24097;DHT22;12275;48.550;12.132;2022-12-18T16:19:40;-2.50;99.90
24097;DHT22;12275;48.550;12.132;2022-12-18T16:22:05;-2.40;99.90
24097;DHT22;12275;48.550;12.132;2022-12-18T16:24:32;-2.40;99.90
24097;DHT22;12275;48.550;12.132;2022-12-18T16:26:58;-2.50;99.90
24097;DHT22;12275;48.550;12.132;2022-12-18T16:29:24;-2.40;99.90
24097;DHT22;12275;48.550;12.132;2022-12-18T16:31:52;-2.50;99.90
24097;DHT22;12275;48.550;12.132;2022-12-18T16:34:19;-2.50;99.90
24097;DHT22;12275;48.550;12.132;2022-12-18T16:36:48;-2.50;99.90
24097;DHT22;12275;48.550;12.132;2022-12-18T16:39:15;-2.50;99.90
24097;DHT22;12275;48.550;12.132;2022-12-18T16:41:40;-2.50;99.90
24097;DHT22;12275;48.550;12.132;2022-12-18T16:44:06;-2.50;99.90
24097;DHT22;12275;48.550;12.132;2022-12-18T16:46:32;-2.50;99.90
24097;DHT22;12275;48.550;12.132;2022-12-18T16:48:58;-2.50;99.90
24097;DHT22;12275;48.550;12.132;2022-12-18T16:51:24;-2.60;99.90
24097;DHT22;12275;48.550;12.132;2022-12-18T16:53:49;-2.60;99.90
24097;DHT22;12275;48.550;12.132;2022-12-18T16:56:15;-2.60;99.90
24097;DHT22;12275;48.550;12.132;2022-12-18T16:58:40;-2.60;99.90
24097;DHT22;12275;48.550;12.132;2022-12-18T17:01:07;-2.60;99.90
24097;DHT22;12275;48.550;12.132;2022-12-18T17:03:33;-2.60;99.90